Time;durP1;ratioP1;P1;durP2;ratioP2;P2;SDS_P1;SDS_P2;PMS_P1;PMS_P2;Temp;Humidity;BMP_temperature;BMP_pressure;BME280_temperature;BME280_humidity;BME280_pressure;Samples;Min_cycle;Max_cycle;Signal;HPM_P1;HPM_P2
2022/04/01 00:01:57;;;;;;;24.40;6.70;;;;;;;16.36;45.50;98956.77;107002;1252;70968;-69
2022/04/01 00:04:27;;;;;;;17.90;6.80;;;;;;;16.34;45.78;98956.67;106974;1251;72079;-69
2022/04/01 00:06:56;;;;;;;23.40;6.70;;;;;;;16.32;45.87;98955.55;106927;1252;70031;-68
2022/04/01 00:09:26;;;;;;;23.20;7.20;;;;;;;16.30;45.97;98961.25;106907;1252;74517;-68
2022/04/01 00:11:55;;;;;;;23.60;6.40;;;;;;;16.26;46.18;98960.05;106989;1251;59511;-70
2022/04/01 00:14:24;;;;;;;26.70;7.10;;;;;;;16.24;46.26;98956.95;107065;1251;59815;-68
2022/04/01 00:16:53;;;;;;;21.00;6.90;;;;;;;16.23;46.32;98954.95;107131;1252;73555;-68
2022/04/01 00:19:22;;;;;;;21.40;6.80;;;;;;;16.23;46.33;98959.20;107084;1251;70593;-68
2022/04/01 00:21:52;;;;;;;20.70;6.80;;;;;;;16.16;46.61;98955.75;107298;1252;69693;-71
2022/04/01 00:24:22;;;;;;;19.60;6.80;;;;;;;16.11;46.89;98957.93;107293;1252;74897;-68
2022/04/01 00:26:51;;;;;;;23.60;7.10;;;;;;;16.10;46.95;98955.84;107335;1251;59224;-68
2022/04/01 00:29:20;;;;;;;17.60;7.10;;;;;;;16.11;46.79;98957.64;107260;1251;58945;-67
2022/04/01 00:32:01;;;;;;;26.10;7.90;;;;;;;16.03;47.37;98956.59;107273;1251;72601;-67
2022/04/01 00:34:34;;;;;;;26.00;7.40;;;;;;;15.97;47.71;98957.64;107373;1251;73622;-70
2022/04/01 00:37:04;;;;;;;30.40;7.30;;;;;;;15.94;47.83;98963.04;107132;1252;68587;-71
2022/04/01 00:39:33;;;;;;;26.60;8.00;;;;;;;15.93;47.68;98965.63;107172;1251;72397;-69
2022/04/01 00:42:04;;;;;;;21.30;8.10;;;;;;;15.85;48.37;98971.17;107140;1252;60975;-70
2022/04/01 00:44:36;;;;;;;24.70;8.00;;;;;;;15.82;48.62;98970.33;107242;1252;62055;-68
2022/04/01 00:47:10;;;;;;;23.50;8.60;;;;;;;15.78;48.61;98974.30;107477;1251;71945;-69
2022/04/01 00:49:42;;;;;;;23.10;7.30;;;;;;;15.77;48.91;98963.42;107121;1252;70662;-69
2022/04/01 00:52:14;;;;;;;26.80;8.40;;;;;;;15.72;49.50;98955.84;107170;1251;71024;-67
2022/04/01 00:54:45;;;;;;;23.50;8.60;;;;;;;15.68;49.75;98955.23;107113;1252;74574;-65
2022/04/01 00:57:14;;;;;;;29.80;8.00;;;;;;;15.62;49.80;98947.23;107166;1251;59816;-66
2022/04/01 00:59:45;;;;;;;25.70;8.30;;;;;;;15.57;50.20;98946.98;106958;1253;60492;-66
2022/04/01 01:02:17;;;;;;;26.90;8.00;;;;;;;15.55;50.37;98950.58;107132;1249;71497;-66
2022/04/01 01:04:47;;;;;;;28.50;9.20;;;;;;;15.50;50.74;98953.70;107176;1249;72630;-67
2022/04/01 01:07:16;;;;;;;29.90;8.40;;;;;;;15.47;50.93;98956.50;108230;1251;69104;-66
2022/04/01 01:09:46;;;;;;;34.70;8.90;;;;;;;15.43;51.24;98949.65;107076;1252;72973;-68
2022/04/01 01:12:17;;;;;;;22.10;7.10;;;;;;;15.38;51.78;98952.25;107220;1249;62837;-68
2022/04/01 01:14:46;;;;;;;26.10;8.80;;;;;;;15.40;51.62;98955.73;107101;1249;61790;-67
2022/04/01 01:17:16;;;;;;;28.70;9.80;;;;;;;15.31;52.37;98957.39;107178;1249;72610;-65
2022/04/01 01:19:45;;;;;;;26.20;8.40;;;;;;;15.27;52.31;98961.64;107184;1249;71238;-67
2022/04/01 01:22:15;;;;;;;23.60;9.30;;;;;;;15.27;52.29;98967.33;107107;1250;69815;-67
2022/04/01 01:24:44;;;;;;;32.70;10.50;;;;;;;15.22;52.19;98971.41;107190;1249;73914;-68
2022/04/01 01:27:13;;;;;;;32.50;9.80;;;;;;;15.18;53.29;98966.99;107247;1249;62050;-67
2022/04/01 01:29:43;;;;;;;28.20;10.30;;;;;;;15.12;53.36;98961.53;107001;1250;61996;-69
2022/04/01 01:32:19;;;;;;;31.90;10.20;;;;;;;15.06;54.05;98966.63;107231;1249;73720;-68
2022/04/01 01:34:48;;;;;;;32.30;9.70;;;;;;;15.02;54.24;98964.11;107252;1249;72582;-68
2022/04/01 01:37:17;;;;;;;25.10;9.10;;;;;;;15.00;53.98;98961.86;107189;1250;70936;-68
2022/04/01 01:39:47;;;;;;;28.00;9.20;;;;;;;14.96;54.20;98953.49;107262;1250;74174;-68
2022/04/01 01:42:17;;;;;;;29.20;10.00;;;;;;;14.94;54.54;98961.09;107224;1249;61080;-68
2022/04/01 01:44:45;;;;;;;30.70;9.10;;;;;;;14.91;54.61;98962.98;107370;1249;63073;-69
2022/04/01 01:47:15;;;;;;;27.10;9.60;;;;;;;14.89;54.88;98966.36;107131;1253;74597;-69
2022/04/01 01:55:20;;;;;;;29.00;11.20;;;;;;;14.79;55.02;98953.31;107250;1250;74674;-67
2022/04/01 01:57:49;;;;;;;28.40;10.30;;;;;;;14.80;55.26;98948.35;107106;1251;60880;-69
2022/04/01 02:00:22;;;;;;;29.40;11.10;;;;;;;14.76;55.56;98945.80;107160;1252;61158;-69
2022/04/01 02:02:51;;;;;;;27.90;11.00;;;;;;;14.74;55.71;98943.58;107167;1252;72748;-69
2022/04/01 02:05:20;;;;;;;28.20;10.20;;;;;;;14.72;55.89;98941.36;107206;1250;70704;-70
2022/04/01 02:07:49;;;;;;;27.40;9.90;;;;;;;14.72;55.48;98942.29;107189;1251;71116;-68
2022/04/01 02:10:18;;;;;;;27.90;10.10;;;;;;;14.71;55.50;98948.31;107214;1250;75340;-69
2022/04/01 02:12:47;;;;;;;32.80;10.90;;;;;;;14.70;55.86;98943.11;107053;1250;60872;-69
2022/04/01 02:15:18;;;;;;;27.30;10.20;;;;;;;14.66;55.78;98942.25;107195;1250;60812;-69
2022/04/01 02:17:47;;;;;;;30.90;10.90;;;;;;;14.64;55.94;98934.30;107146;1251;73406;-68
2022/04/01 02:20:16;;;;;;;26.70;10.20;;;;;;;14.62;55.68;98926.33;107148;1252;72952;-69
2022/04/01 02:22:45;;;;;;;27.90;10.90;;;;;;;14.56;55.96;98921.92;107116;1252;69438;-70
2022/04/01 02:25:16;;;;;;;39.70;11.10;;;;;;;14.52;56.49;98919.69;107209;1250;72389;-68
2022/04/01 02:27:45;;;;;;;27.10;11.00;;;;;;;14.51;56.15;98917.36;107052;1252;59839;-71
2022/04/01 02:30:14;;;;;;;26.00;10.60;;;;;;;14.48;56.35;98916.17;107230;1253;59557;-67
2022/04/01 02:33:02;;;;;;;31.80;10.90;;;;;;;14.38;56.77;98910.31;107482;1251;74326;-68
2022/04/01 02:35:37;;;;;;;27.20;10.90;;;;;;;14.39;56.28;98916.01;107370;1251;72690;-69
2022/04/01 02:38:06;;;;;;;29.80;11.60;;;;;;;14.34;55.79;98917.21;107106;1251;71504;-68
2022/04/01 02:40:36;;;;;;;27.70;11.20;;;;;;;14.30;55.48;98914.05;107071;1253;71381;-67
2022/04/01 02:43:06;;;;;;;28.90;11.50;;;;;;;14.24;56.38;98910.20;107026;1251;60747;-68
2022/04/01 02:45:37;;;;;;;27.80;11.00;;;;;;;14.15;56.98;98910.52;107075;1250;60004;-67
2022/04/01 02:48:07;;;;;;;26.60;10.60;;;;;;;14.10;56.68;98911.17;106950;1250;73606;-68
2022/04/01 02:50:56;;;;;;;30.20;11.50;;;;;;;14.02;56.73;98915.83;107060;1250;70449;-72
2022/04/01 02:53:26;;;;;;;29.50;11.60;;;;;;;13.96;56.53;98921.46;107079;1251;68117;-69
2022/04/01 02:55:55;;;;;;;29.00;11.40;;;;;;;13.92;57.50;98918.67;107146;1251;71977;-69
2022/04/01 02:58:24;;;;;;;30.90;11.10;;;;;;;13.86;57.17;98915.23;106653;1249;689368;-67
2022/04/01 03:00:54;;;;;;;27.20;11.60;;;;;;;13.83;57.79;98915.33;106998;1251;59324;-69
2022/04/01 03:03:24;;;;;;;31.90;11.70;;;;;;;13.79;57.99;98920.96;107002;1250;72834;-71
2022/04/01 03:05:54;;;;;;;33.60;12.40;;;;;;;13.75;58.18;98925.45;106804;1250;73333;-70
2022/04/01 03:08:23;;;;;;;30.90;12.10;;;;;;;13.72;58.19;98923.48;107127;1250;68856;-68
2022/04/01 03:10:52;;;;;;;27.30;12.10;;;;;;;13.69;57.50;98920.60;106929;1252;72159;-66
2022/04/01 03:13:21;;;;;;;30.20;11.50;;;;;;;13.64;57.55;98920.77;107089;1251;59431;-67
2022/04/01 03:16:08;;;;;;;32.30;11.60;;;;;;;13.60;57.51;98923.15;107097;1249;60547;-68
2022/04/01 03:18:49;;;;;;;31.80;12.90;;;;;;;13.59;58.09;98921.23;106870;1250;74557;-68
2022/04/01 03:21:18;;;;;;;29.70;12.20;;;;;;;13.62;57.37;98926.39;107010;1250;70737;-68
2022/04/01 03:23:47;;;;;;;28.60;11.90;;;;;;;13.64;58.62;98931.10;107098;1249;69114;-66
2022/04/01 03:26:23;;;;;;;30.30;12.30;;;;;;;13.64;59.30;98926.94;106919;1252;73014;-69
2022/04/01 03:29:00;;;;;;;38.60;12.40;;;;;;;13.63;58.84;98922.86;106828;1252;60641;-67
2022/04/01 03:31:30;;;;;;;39.20;13.90;;;;;;;13.63;58.96;98927.08;107036;1249;59691;-68
2022/04/01 03:34:01;;;;;;;39.50;18.00;;;;;;;13.63;58.65;98931.36;107074;1249;73529;-70
2022/04/01 03:36:32;;;;;;;33.30;13.00;;;;;;;13.64;58.73;98936.31;107060;1249;73499;-71
2022/04/01 03:39:03;;;;;;;30.60;13.40;;;;;;;13.66;58.56;98936.40;107472;1250;68425;-72
2022/04/01 03:42:06;;;;;;;30.40;12.00;;;;;;;13.68;58.06;98934.26;107363;1249;71464;-70
2022/04/01 03:44:37;;;;;;;33.70;12.10;;;;;;;13.70;58.21;98932.38;107261;1249;61651;-69
2022/04/01 03:48:06;;;;;;;29.40;12.20;;;;;;;13.71;57.40;98934.63;107165;1250;61722;-70
2022/04/01 03:50:39;;;;;;;26.40;10.90;;;;;;;13.72;58.35;98926.95;107323;1251;73917;-71
2022/04/01 03:53:09;;;;;;;27.10;10.60;;;;;;;13.73;58.41;98922.95;107148;1252;70260;-69
2022/04/01 03:55:45;;;;;;;30.80;12.20;;;;;;;13.72;58.85;98925.96;107025;1252;68012;-71
2022/04/01 03:58:35;;;;;;;32.60;11.60;;;;;;;13.71;58.09;98929.08;107287;1250;73355;-68
2022/04/01 04:01:05;;;;;;;33.80;9.40;;;;;;;13.71;58.29;98924.73;107478;1249;59251;-69
2022/04/01 04:03:36;;;;;;;36.00;10.60;;;;;;;13.74;58.83;98930.65;107437;1249;60888;-71
2022/04/01 04:06:11;;;;;;;31.50;11.00;;;;;;;13.74;58.84;98936.98;107398;1252;73680;-71
2022/04/01 04:08:43;;;;;;;30.00;10.00;;;;;;;13.75;58.44;98934.54;107264;1252;71771;-71
2022/04/01 04:11:12;;;;;;;28.80;10.20;;;;;;;13.76;58.19;98934.27;107240;1252;69047;-70
2022/04/01 04:13:52;;;;;;;26.40;9.80;;;;;;;13.77;58.23;98934.09;107250;1249;73441;-71
2022/04/01 04:16:31;;;;;;;28.90;10.40;;;;;;;13.79;58.57;98937.25;107283;1250;61210;-73
2022/04/01 04:19:07;;;;;;;24.20;8.70;;;;;;;13.81;58.58;98935.00;107460;1252;59718;-73
2022/04/01 04:22:13;;;;;;;27.40;10.50;;;;;;;13.83;58.25;98941.04;107503;1249;73570;-76
2022/04/01 04:24:58;;;;;;;30.60;9.20;;;;;;;13.84;58.25;98936.58;107152;1250;71351;-72
2022/04/01 04:27:30;;;;;;;29.80;9.80;;;;;;;13.84;58.49;98931.04;107192;1250;70003;-72
2022/04/01 04:30:09;;;;;;;25.60;9.90;;;;;;;13.83;58.67;98931.54;107435;1248;72444;-75
2022/04/01 04:33:30;;;;;;;21.20;9.60;;;;;;;13.84;57.98;98938.59;107210;1253;61337;-74
2022/04/01 04:36:04;;;;;;;29.10;10.10;;;;;;;13.80;58.68;98944.64;107290;1253;60983;-74
2022/04/01 04:38:47;;;;;;;36.70;10.80;;;;;;;13.83;58.28;98948.91;106940;1252;72667;-72
2022/04/01 04:41:18;;;;;;;35.50;10.50;;;;;;;13.84;58.45;98949.51;107430;1249;71599;-75
2022/04/01 04:43:53;;;;;;;30.30;10.10;;;;;;;13.88;58.01;98950.95;107082;1252;70633;-71
2022/04/01 04:46:23;;;;;;;30.20;10.70;;;;;;;13.88;57.97;98943.93;106981;1250;74581;-72
2022/04/01 04:48:55;;;;;;;25.70;11.60;;;;;;;13.86;58.62;98943.52;107060;1252;60375;-74
2022/04/01 04:51:28;;;;;;;32.20;11.00;;;;;;;13.83;58.66;98943.61;107128;1253;59074;-72
2022/04/01 04:54:48;;;;;;;31.20;10.80;;;;;;;13.88;57.91;98955.47;107505;1249;73873;-74
2022/04/01 04:57:38;;;;;;;30.90;10.60;;;;;;;13.90;57.76;98962.55;107142;1249;69210;-71
2022/04/01 05:00:08;;;;;;;30.90;10.00;;;;;;;13.93;57.30;98957.15;107299;1252;68742;-73
2022/04/01 05:03:51;;;;;;;28.60;10.20;;;;;;;13.94;58.36;98956.91;107505;1249;72321;-72
2022/04/01 05:06:27;;;;;;;31.10;9.70;;;;;;;13.95;57.94;98956.55;107403;1251;58956;-72
2022/04/01 05:09:29;;;;;;;33.10;10.80;;;;;;;13.96;58.45;98958.38;107530;1249;61689;-71
2022/04/01 05:12:26;;;;;;;32.40;10.40;;;;;;;13.95;58.60;98956.38;107489;1250;74730;-73
2022/04/01 05:15:42;;;;;;;33.40;10.30;;;;;;;13.95;58.54;98951.46;107411;1252;71486;-73
2022/04/01 05:18:30;;;;;;;26.70;9.80;;;;;;;13.95;58.34;98955.85;107486;1250;68754;-72
2022/04/01 05:21:02;;;;;;;38.60;10.10;;;;;;;13.99;58.48;98961.20;107407;1249;71992;-75
2022/04/01 05:24:12;;;;;;;34.60;9.70;;;;;;;13.97;58.43;98955.64;107252;1251;59752;-73
2022/04/01 05:26:52;;;;;;;28.30;9.50;;;;;;;13.99;58.16;98951.95;107533;1250;60044;-72
2022/04/01 05:29:45;;;;;;;29.00;10.40;;;;;;;14.03;58.11;98945.02;107268;1249;70953;-73
2022/04/01 05:32:18;;;;;;;29.60;10.70;;;;;;;14.05;58.14;98937.27;107184;1249;70459;-73
2022/04/01 05:34:49;;;;;;;27.20;10.30;;;;;;;14.09;57.72;98938.44;107079;1251;70548;-73
2022/04/01 05:37:18;;;;;;;36.70;11.50;;;;;;;14.13;58.02;98945.64;107350;1250;70169;-73
2022/04/01 05:39:49;;;;;;;30.10;10.10;;;;;;;14.15;57.79;98950.59;107411;1251;61341;-71
2022/04/01 05:42:22;;;;;;;37.60;11.30;;;;;;;14.21;57.76;98949.89;107171;1252;62385;-73
2022/04/01 05:45:27;;;;;;;26.90;9.70;;;;;;;14.26;57.48;98952.80;107222;1251;73560;-72
2022/04/01 05:48:01;;;;;;;35.80;10.20;;;;;;;14.37;57.07;98949.48;107173;1251;73146;-72
2022/04/01 05:50:32;;;;;;;30.50;10.20;;;;;;;14.46;56.73;98944.27;107586;1252;69302;-72
2022/04/01 05:53:02;;;;;;;31.70;10.60;;;;;;;14.57;56.48;98941.39;107199;1253;72010;-73
2022/04/01 05:55:39;;;;;;;34.80;11.50;;;;;;;14.64;55.75;98940.48;107303;1249;61702;-73
2022/04/01 05:58:08;;;;;;;29.10;9.80;;;;;;;14.77;55.59;98945.08;107473;1249;60111;-73
2022/04/01 06:01:30;;;;;;;34.40;9.30;;;;;;;14.87;54.96;98947.73;107184;1251;73113;-73
2022/04/01 06:04:36;;;;;;;30.20;9.90;;;;;;;14.96;54.84;98940.13;107432;1251;71715;-73
2022/04/01 06:07:34;;;;;;;24.70;9.90;;;;;;;15.17;54.30;98933.06;107691;1251;68694;-72
2022/04/01 06:10:09;;;;;;;34.60;10.90;;;;;;;15.47;53.31;98928.61;107786;1251;71850;-71
2022/04/01 06:13:06;;;;;;;32.60;9.50;;;;;;;15.76;52.75;98925.91;107517;1249;59409;-72
2022/04/01 06:16:18;;;;;;;34.50;10.10;;;;;;;16.10;51.22;98925.14;107416;1253;61077;-73
2022/04/01 06:19:10;;;;;;;25.40;8.50;;;;;;;16.46;50.74;98923.64;107071;1254;75033;-73
2022/04/01 06:22:06;;;;;;;37.80;9.80;;;;;;;16.78;49.18;98919.90;107237;1250;72209;-73
2022/04/01 06:25:06;;;;;;;27.40;8.10;;;;;;;17.15;48.15;98917.29;107016;1252;71533;-73
2022/04/01 06:27:43;;;;;;;22.20;8.90;;;;;;;17.34;47.64;98920.66;107100;1251;73525;-72
2022/04/01 06:30:20;;;;;;;30.00;8.50;;;;;;;17.58;47.39;98926.38;107065;1253;61514;-74
2022/04/01 06:33:17;;;;;;;32.00;8.60;;;;;;;17.74;46.78;98933.59;107067;1253;60260;-73
2022/04/01 06:36:06;;;;;;;31.10;9.40;;;;;;;17.95;46.33;98930.38;106958;1251;73626;-73
2022/04/01 06:39:03;;;;;;;24.80;8.80;;;;;;;17.95;46.01;98927.50;106906;1252;71870;-75
2022/04/01 06:41:48;;;;;;;30.30;9.20;;;;;;;18.24;45.62;98915.32;106808;1250;68446;-73
2022/04/01 06:44:40;;;;;;;27.60;7.90;;;;;;;18.34;44.75;98934.27;106850;1249;74028;-74
2022/04/01 06:47:30;;;;;;;30.50;9.20;;;;;;;18.59;44.46;98937.70;106827;1251;59205;-76
2022/04/01 06:50:01;;;;;;;27.10;8.00;;;;;;;18.80;43.70;98938.64;106851;1251;60517;-75
2022/04/01 06:52:50;;;;;;;23.70;8.10;;;;;;;19.27;43.25;98942.40;106936;1253;75143;-73
2022/04/01 06:55:56;;;;;;;35.20;9.90;;;;;;;19.28;42.27;98932.27;107156;1250;72272;-74
2022/04/01 06:58:48;;;;;;;32.30;9.40;;;;;;;19.37;42.45;98940.73;107190;1252;70929;-78
2022/04/01 07:01:17;;;;;;;24.00;8.60;;;;;;;19.55;42.20;98944.95;107228;1251;73384;-75
2022/04/01 07:03:46;;;;;;;26.60;8.50;;;;;;;19.85;41.57;98941.78;107316;1250;59029;-73
2022/04/01 07:06:16;;;;;;;25.70;7.90;;;;;;;19.87;40.98;98938.02;107207;1253;60465;-72
2022/04/01 07:08:47;;;;;;;28.30;7.10;;;;;;;20.07;40.73;98941.73;107108;1251;72496;-73
2022/04/01 07:11:17;;;;;;;18.50;6.60;;;;;;;20.16;40.10;98939.20;107116;1253;72216;-74
2022/04/01 07:13:46;;;;;;;24.40;7.80;;;;;;;20.08;40.07;98930.41;106990;1252;71488;-72
2022/04/01 07:16:15;;;;;;;27.00;6.30;;;;;;;19.88;40.30;98931.13;107144;1250;73515;-74
2022/04/01 07:18:44;;;;;;;15.20;6.20;;;;;;;19.96;40.22;98930.58;106899;1252;61707;-75
2022/04/01 07:21:13;;;;;;;29.50;8.00;;;;;;;20.00;40.41;98924.11;107191;1250;58993;-74
2022/04/01 07:23:43;;;;;;;26.40;7.70;;;;;;;20.07;40.35;98924.70;107231;1249;73638;-73
2022/04/01 07:26:12;;;;;;;29.70;8.10;;;;;;;20.15;40.01;98929.02;106917;1252;61999;-73
2022/04/01 07:28:42;;;;;;;24.10;7.30;;;;;;;20.09;40.46;98928.45;107207;1251;70753;-72
2022/04/01 07:34:28;;;;;;;18.50;5.40;;;;;;;20.49;38.76;98928.88;107237;1251;58761;-75
2022/04/01 07:36:57;;;;;;;23.50;5.70;;;;;;;20.46;38.55;98921.14;107402;1251;57475;-74
2022/04/01 07:39:27;;;;;;;15.60;5.20;;;;;;;20.46;38.88;98914.82;107225;1250;72921;-73
2022/04/01 07:41:56;;;;;;;18.80;6.20;;;;;;;20.52;38.65;98918.73;107299;1250;72965;-73
2022/04/01 07:44:25;;;;;;;26.10;7.00;;;;;;;20.57;38.77;98918.27;107353;1249;71379;-74
2022/04/01 07:46:55;;;;;;;19.60;5.90;;;;;;;20.77;38.42;98915.59;107379;1249;73176;-73
2022/04/01 07:49:24;;;;;;;17.10;5.50;;;;;;;20.99;38.10;98919.15;107558;1252;58972;-74
2022/04/01 07:52:16;;;;;;;24.20;6.60;;;;;;;21.23;38.01;98920.47;107660;1251;59099;-76
2022/04/01 07:54:50;;;;;;;18.70;6.50;;;;;;;21.44;37.54;98921.28;107389;1251;74620;-75
2022/04/01 07:57:20;;;;;;;28.20;7.40;;;;;;;21.56;37.11;98920.75;107305;1251;63019;-74
2022/04/01 07:59:49;;;;;;;18.70;4.50;;;;;;;21.79;36.61;98923.86;107260;1251;69468;-74
2022/04/01 08:02:18;;;;;;;20.20;5.20;;;;;;;21.97;35.38;98912.23;107389;1251;63631;-75
2022/04/01 08:04:47;;;;;;;18.20;4.70;;;;;;;21.91;35.43;98905.29;107495;1250;61737;-72
2022/04/01 08:07:17;;;;;;;10.20;3.90;;;;;;;21.79;35.43;98905.83;107216;1251;59512;-73
2022/04/01 08:09:46;;;;;;;17.80;4.50;;;;;;;21.92;34.65;98909.13;107335;1250;63640;-74
2022/04/01 08:12:17;;;;;;;16.30;4.60;;;;;;;21.80;35.06;98905.12;107125;1251;61733;-73
2022/04/01 08:14:46;;;;;;;20.70;5.00;;;;;;;22.00;35.13;98906.42;107132;1251;71550;-75
2022/04/01 08:17:15;;;;;;;15.30;5.30;;;;;;;22.10;35.16;98905.02;107190;1250;64570;-74
2022/04/01 08:19:44;;;;;;;13.20;4.00;;;;;;;22.30;34.23;98910.19;107209;1251;61349;-72
2022/04/01 08:22:13;;;;;;;19.30;4.20;;;;;;;22.12;34.23;98906.76;107367;1251;59191;-74
2022/04/01 08:24:42;;;;;;;13.60;3.20;;;;;;;22.11;33.79;98912.21;107544;1251;63960;-73
2022/04/01 08:27:14;;;;;;;16.00;3.20;;;;;;;22.03;33.81;98905.57;107491;1250;62668;-72
2022/04/01 08:29:44;;;;;;;9.50;3.00;;;;;;;22.13;33.48;98905.95;107247;1250;60008;-75
2022/04/01 08:32:13;;;;;;;15.40;3.70;;;;;;;22.08;33.40;98899.92;107140;1252;62544;-74
2022/04/01 08:34:43;;;;;;;11.20;3.10;;;;;;;21.93;34.00;98896.77;106854;1253;61314;-75
2022/04/01 08:37:12;;;;;;;12.60;3.50;;;;;;;22.00;33.70;98898.73;107074;1251;58384;-72
2022/04/01 08:39:43;;;;;;;10.40;3.10;;;;;;;22.13;33.33;98901.86;106983;1251;62303;-73
2022/04/01 08:42:12;;;;;;;12.50;3.30;;;;;;;22.07;33.29;98901.85;107100;1250;61737;-75
2022/04/01 08:44:46;;;;;;;10.80;3.40;;;;;;;22.06;33.38;98905.47;107098;1251;70609;-73
2022/04/01 08:47:15;;;;;;;15.10;4.00;;;;;;;22.00;33.21;98908.06;107153;1251;64118;-73
2022/04/01 08:49:44;;;;;;;7.60;2.20;;;;;;;21.93;33.04;98901.13;107061;1251;62415;-74
2022/04/01 08:52:13;;;;;;;5.60;2.80;;;;;;;22.15;32.81;98906.73;107234;1251;59023;-75
2022/04/01 08:54:42;;;;;;;8.40;2.00;;;;;;;22.37;32.45;98896.73;107104;1251;72790;-75
2022/04/01 08:57:18;;;;;;;13.20;2.70;;;;;;;22.41;32.06;98887.98;107295;1251;73283;-72
2022/04/01 08:59:47;;;;;;;9.20;2.40;;;;;;;22.42;32.22;98889.72;107143;1251;69339;-72
2022/04/01 09:02:16;;;;;;;13.10;3.70;;;;;;;22.63;31.78;98887.90;107103;1252;64904;-75
2022/04/01 09:04:51;;;;;;;15.40;4.00;;;;;;;22.63;31.95;98886.66;107307;1251;60350;-73
2022/04/01 09:07:24;;;;;;;8.80;3.20;;;;;;;22.79;31.76;98893.86;107167;1251;58680;-76
2022/04/01 09:10:05;;;;;;;8.30;4.20;;;;;;;22.87;31.55;98890.39;107280;1251;73249;-72
2022/04/01 09:12:51;;;;;;;9.30;3.10;;;;;;;23.06;31.27;98896.11;107295;1250;71761;-72
2022/04/01 09:15:20;;;;;;;10.50;2.40;;;;;;;23.14;31.24;98889.61;107362;1250;70970;-73
2022/04/01 09:17:51;;;;;;;12.40;2.50;;;;;;;23.45;30.20;98890.67;107356;1251;73423;-73
2022/04/01 09:20:19;;;;;;;8.50;2.00;;;;;;;23.47;30.13;98886.45;107262;1251;61877;-75
2022/04/01 09:22:58;;;;;;;9.90;2.10;;;;;;;23.53;30.13;98883.48;107276;1251;61795;-75
2022/04/01 09:25:27;;;;;;;6.60;1.80;;;;;;;23.61;29.87;98878.84;107229;1251;72639;-74
2022/04/01 09:27:56;;;;;;;9.50;2.00;;;;;;;23.60;29.70;98883.50;107150;1251;72126;-74
2022/04/01 09:30:30;;;;;;;7.20;1.80;;;;;;;23.51;29.66;98870.14;107162;1251;69118;-72
2022/04/01 09:33:02;;;;;;;8.50;2.50;;;;;;;23.40;29.89;98861.92;107141;1251;74521;-75
2022/04/01 09:35:33;;;;;;;12.30;2.90;;;;;;;23.48;29.95;98862.33;107459;1250;60341;-75
2022/04/01 09:38:04;;;;;;;7.10;1.40;;;;;;;23.50;29.57;98864.81;107422;1251;57618;-73
2022/04/01 09:40:35;;;;;;;4.50;1.00;;;;;;;23.46;29.20;98859.63;107484;1250;72172;-76
2022/04/01 09:43:09;;;;;;;5.40;1.70;;;;;;;23.19;29.31;98854.18;107353;1251;70669;-75
2022/04/01 09:45:38;;;;;;;5.00;1.40;;;;;;;23.20;29.68;98857.40;107320;1251;60054;-78
2022/04/01 09:48:16;;;;;;;8.50;1.60;;;;;;;23.41;29.49;98850.63;107494;1251;73363;-75
2022/04/01 09:50:59;;;;;;;5.60;2.20;;;;;;;23.38;29.77;98848.61;107535;1251;59448;-74
2022/04/01 09:53:28;;;;;;;8.40;1.70;;;;;;;23.54;29.55;98851.36;107478;1251;59876;-77
2022/04/01 09:56:04;;;;;;;4.40;1.60;;;;;;;23.67;29.28;98855.08;107853;1254;73460;-78
2022/04/01 09:58:33;;;;;;;7.60;1.40;;;;;;;23.80;28.93;98852.04;107464;1254;71009;-72
2022/04/01 10:01:05;;;;;;;8.20;1.80;;;;;;;23.77;28.78;98852.52;107986;1250;71311;-74
2022/04/01 10:03:39;;;;;;;4.80;1.30;;;;;;;23.88;28.51;98851.79;107047;1251;73825;-73
2022/04/01 10:06:10;;;;;;;5.10;1.40;;;;;;;23.81;28.69;98840.91;107619;1251;60919;-78
2022/04/01 10:08:39;;;;;;;7.90;1.50;;;;;;;23.82;28.59;98837.52;107494;1249;60890;-75
2022/04/01 10:11:11;;;;;;;5.10;1.50;;;;;;;23.85;28.70;98839.27;107548;1250;63671;-74
2022/04/01 10:13:41;;;;;;;9.20;1.80;;;;;;;24.10;28.32;98848.30;107341;1251;70544;-73
2022/04/01 10:16:13;;;;;;;10.30;2.00;;;;;;;24.29;28.10;98843.20;107206;1253;59398;-72
2022/04/01 10:18:58;;;;;;;4.80;1.50;;;;;;;24.44;28.29;98838.80;107177;1253;74236;-73
2022/04/01 10:21:33;;;;;;;7.80;1.60;;;;;;;24.46;27.99;98841.70;107149;1251;58847;-75
2022/04/01 10:24:14;;;;;;;7.30;1.50;;;;;;;24.63;27.33;98834.61;107029;1254;60337;-74
2022/04/01 10:27:16;;;;;;;11.20;2.00;;;;;;;24.56;27.58;98834.13;107328;1251;64459;-75
2022/04/01 10:29:54;;;;;;;10.40;2.20;;;;;;;25.02;27.05;98828.79;107109;1251;72366;-75
2022/04/01 10:32:36;;;;;;;9.70;2.10;;;;;;;25.31;26.78;98823.16;107132;1251;60391;-73
2022/04/01 10:35:21;;;;;;;14.80;2.20;;;;;;;25.69;26.06;98823.73;107465;1251;65350;-74
2022/04/01 10:38:05;;;;;;;5.40;1.40;;;;;;;26.46;24.84;98832.05;107343;1254;59311;-71
2022/04/01 10:40:41;;;;;;;4.60;1.80;;;;;;;26.38;25.08;98823.60;107284;1251;61323;-71
2022/04/01 10:43:31;;;;;;;4.10;1.50;;;;;;;26.44;24.84;98825.90;107335;1251;73441;-72
2022/04/01 10:46:03;;;;;;;9.20;1.60;;;;;;;26.10;25.25;98820.80;107207;1251;73067;-75
2022/04/01 10:51:37;;;;;;;6.10;1.30;;;;;;;26.82;24.33;98810.90;107052;1251;65303;-73
2022/04/01 10:54:12;;;;;;;4.40;1.60;;;;;;;27.25;23.60;98805.48;107450;1251;58749;-74
2022/04/01 10:57:06;;;;;;;5.90;1.40;;;;;;;27.24;23.76;98807.20;107779;1250;58805;-72
2022/04/01 10:59:46;;;;;;;5.70;1.30;;;;;;;27.97;22.21;98812.61;107734;1251;74530;-74
2022/04/01 11:02:22;;;;;;;5.70;1.70;;;;;;;27.41;23.25;98808.23;107595;1251;62513;-75
2022/04/01 11:04:54;;;;;;;7.90;1.90;;;;;;;27.65;23.10;98812.65;107707;1247;59949;-75
2022/04/01 11:07:23;;;;;;;4.20;1.50;;;;;;;27.90;22.49;98805.59;107799;1244;63339;-74
2022/04/01 11:10:01;;;;;;;7.60;1.40;;;;;;;27.81;22.62;98801.99;107583;1246;58750;-75
2022/04/01 11:12:49;;;;;;;7.40;2.10;;;;;;;28.30;21.72;98800.03;107529;1247;59154;-78
2022/04/01 11:15:30;;;;;;;5.00;1.50;;;;;;;28.33;21.73;98795.73;107569;1246;64639;-74
2022/04/01 11:18:01;;;;;;;9.20;2.60;;;;;;;28.35;22.04;98787.69;107299;1247;61981;-73
2022/04/01 11:20:32;;;;;;;4.60;1.50;;;;;;;28.97;21.40;98782.59;107597;1247;61197;-73
2022/04/01 11:23:10;;;;;;;4.90;1.50;;;;;;;28.83;21.56;98773.16;107548;1247;73419;-75
2022/04/01 11:25:42;;;;;;;6.00;1.60;;;;;;;29.13;21.18;98776.00;107991;1248;58932;-72
2022/04/01 11:28:15;;;;;;;8.20;1.90;;;;;;;29.22;20.95;98773.05;107766;1247;61420;-75
2022/04/01 11:30:51;;;;;;;3.70;1.50;;;;;;;29.18;21.50;98769.14;107492;1246;62842;-72
2022/04/01 11:33:22;;;;;;;7.80;2.30;;;;;;;29.68;20.73;98768.84;107542;1247;72613;-77
2022/04/01 11:35:55;;;;;;;4.70;1.80;;;;;;;29.56;21.04;98759.91;107713;1247;59645;-76
2022/04/01 11:38:27;;;;;;;6.40;2.00;;;;;;;29.70;20.60;98750.69;108257;1247;73957;-77
2022/04/01 11:41:01;;;;;;;6.00;1.80;;;;;;;29.62;20.68;98749.23;108140;1245;59150;-78
2022/04/01 11:43:31;;;;;;;8.50;1.90;;;;;;;29.59;20.62;98741.19;108096;1247;59057;-77
2022/04/01 11:46:07;;;;;;;5.30;1.80;;;;;;;29.45;20.98;98735.27;107842;1247;62234;-79
2022/04/01 11:48:39;;;;;;;10.10;1.80;;;;;;;29.89;20.80;98735.57;107810;1246;69662;-79
2022/04/01 11:51:15;;;;;;;4.60;1.30;;;;;;;30.26;19.93;98740.14;107704;1247;59201;-77
2022/04/01 11:53:50;;;;;;;5.90;1.50;;;;;;;30.74;18.74;98733.84;107713;1247;74176;-76
2022/04/01 11:56:23;;;;;;;6.80;1.90;;;;;;;30.69;18.62;98729.55;107436;1247;60850;-77
2022/04/01 11:59:02;;;;;;;5.50;1.50;;;;;;;30.26;19.24;98728.84;107633;1247;61016;-78
2022/04/01 12:01:54;;;;;;;6.40;2.00;;;;;;;29.44;19.78;98729.30;107602;1248;72774;-76
2022/04/01 12:04:42;;;;;;;7.40;1.90;;;;;;;28.68;20.54;98721.00;107519;1247;72477;-76
2022/04/01 12:10:01;;;;;;;7.70;2.20;;;;;;;27.11;22.46;98715.52;107931;1247;74872;-77
2022/04/01 12:12:33;;;;;;;7.00;1.80;;;;;;;27.31;22.65;98713.77;108129;1247;58941;-77